Time;durP1;ratioP1;P1;durP2;ratioP2;P2;SDS_P1;SDS_P2;PMS_P1;PMS_P2;Temp;Humidity;BMP_temperature;BMP_pressure;BME280_temperature;BME280_humidity;BME280_pressure;Samples;Min_cycle;Max_cycle;Signal;HPM_P1;HPM_P2
2022/05/05 00:00:42;;;;;;;5.63;5.33;;;;;;;11.09;74.12;101304.44;5113783;28;20185;-70
2022/05/05 00:03:09;;;;;;;5.13;5.03;;;;;;;11.12;74.03;101304.34;5113501;28;20220;-70
2022/05/05 00:05:35;;;;;;;5.40;4.97;;;;;;;11.17;74.12;101302.41;5113421;28;20193;-70
2022/05/05 00:08:02;;;;;;;5.50;5.07;;;;;;;11.16;74.25;101300.72;5113522;28;20204;-70
2022/05/05 00:15:58;;;;;;;5.57;5.37;;;;;;;11.19;76.58;101299.75;5113712;28;20230;-70
2022/05/05 00:18:25;;;;;;;5.23;5.03;;;;;;;11.14;76.59;101299.88;5113210;28;20232;-70
2022/05/05 00:20:51;;;;;;;5.73;5.33;;;;;;;11.13;76.62;101292.09;5113326;28;20193;-70
2022/05/05 00:23:18;;;;;;;5.73;5.53;;;;;;;11.17;76.13;101293.72;5113286;28;20220;-70
2022/05/05 00:25:45;;;;;;;8.63;5.90;;;;;;;11.13;75.59;101292.94;5113257;28;20189;-70
2022/05/05 00:28:11;;;;;;;5.67;5.47;;;;;;;11.16;73.97;101285.00;5113202;28;20237;-70
2022/05/05 00:30:38;;;;;;;6.60;5.43;;;;;;;11.24;74.00;101295.22;5116399;28;20212;-70
2022/05/05 00:33:04;;;;;;;6.27;5.40;;;;;;;11.22;74.55;101295.25;5117036;28;20181;-70
2022/05/05 00:35:31;;;;;;;5.17;4.87;;;;;;;11.20;74.48;101293.59;5117289;28;20541;-68
2022/05/05 00:37:57;;;;;;;5.40;5.17;;;;;;;11.18;74.54;101292.78;5116716;28;20266;-68
2022/05/05 00:40:24;;;;;;;8.57;5.20;;;;;;;11.24;74.10;101293.44;5116902;28;20655;-68
2022/05/05 00:42:50;;;;;;;5.10;4.97;;;;;;;11.20;74.47;101291.81;5116882;28;20220;-68
2022/05/05 00:45:17;;;;;;;5.10;4.93;;;;;;;11.16;74.64;101290.22;5116819;28;20238;-68
2022/05/05 00:47:43;;;;;;;5.73;5.53;;;;;;;11.16;74.65;101287.59;5116708;28;20559;-68
2022/05/05 00:50:11;;;;;;;5.43;5.27;;;;;;;11.01;75.42;101286.38;5116741;28;20193;-67
2022/05/05 00:52:37;;;;;;;5.80;5.60;;;;;;;10.93;75.82;101290.13;5116699;28;20213;-67
2022/05/05 00:55:04;;;;;;;6.27;5.20;;;;;;;10.90;76.49;101285.88;5116617;28;20220;-67
2022/05/05 00:57:31;;;;;;;7.23;5.60;;;;;;;10.90;76.78;101287.63;5116469;28;20232;-67
2022/05/05 01:00:00;;;;;;;6.60;5.33;;;;;;;10.89;77.16;101285.91;5116802;28;20185;-67
2022/05/05 01:02:27;;;;;;;5.17;5.07;;;;;;;10.85;77.20;101292.16;5116473;28;20212;-67
2022/05/05 01:04:54;;;;;;;7.10;5.53;;;;;;;10.87;77.64;101282.50;5116676;28;20185;-67
2022/05/05 01:07:23;;;;;;;5.67;5.47;;;;;;;10.88;77.51;101286.84;5116383;28;20251;-67
2022/05/05 01:09:50;;;;;;;5.90;5.50;;;;;;;10.88;77.21;101286.84;5116366;28;20213;-67
2022/05/05 01:12:17;;;;;;;5.73;5.57;;;;;;;10.91;76.73;101284.09;5116347;28;20178;-67
2022/05/05 01:14:44;;;;;;;5.70;5.43;;;;;;;10.93;76.48;101288.41;5116310;28;20194;-67
2022/05/05 01:17:11;;;;;;;7.63;6.40;;;;;;;10.95;76.28;101294.44;5116374;28;20548;-67
2022/05/05 01:19:37;;;;;;;6.47;5.90;;;;;;;10.94;76.06;101289.25;5116190;28;20191;-67
2022/05/05 01:22:06;;;;;;;6.23;5.83;;;;;;;10.92;75.96;101283.19;5116435;28;20519;-67
2022/05/05 01:30:03;;;;;;;5.57;5.27;;;;;;;10.81;78.28;101287.94;5116557;28;20230;-67
2022/05/05 01:32:32;;;;;;;5.33;5.13;;;;;;;10.81;78.28;101293.19;5116207;28;20186;-67
2022/05/05 01:34:59;;;;;;;5.33;5.10;;;;;;;10.83;78.62;101288.75;5115885;28;20597;-67
2022/05/05 01:37:27;;;;;;;5.70;5.30;;;;;;;10.82;78.67;101284.41;5116029;28;20220;-68
2022/05/05 01:39:53;;;;;;;5.53;5.43;;;;;;;10.82;78.72;101289.66;5115545;28;20251;-68
2022/05/05 01:42:20;;;;;;;6.33;5.90;;;;;;;10.79;78.92;101289.72;5116004;28;20182;-68
2022/05/05 01:44:47;;;;;;;5.60;5.50;;;;;;;10.79;78.62;101290.63;5115677;28;20726;-68
2022/05/05 01:47:13;;;;;;;7.37;6.30;;;;;;;10.77;78.56;101292.41;5115556;28;20268;-68
2022/05/05 01:49:40;;;;;;;5.97;5.43;;;;;;;10.77;78.50;101296.78;5115602;28;20594;-68
2022/05/05 01:52:10;;;;;;;7.23;6.40;;;;;;;10.73;79.05;101301.28;5115545;28;20218;-68
2022/05/05 01:54:38;;;;;;;6.23;5.73;;;;;;;10.74;79.33;101300.38;5115483;28;20213;-68
2022/05/05 01:57:06;;;;;;;6.63;6.07;;;;;;;10.68;79.58;101292.72;5115818;28;20185;-68
2022/05/05 01:59:33;;;;;;;6.23;5.70;;;;;;;10.70;79.74;101301.38;5115390;28;20224;-68
2022/05/05 02:02:00;;;;;;;6.00;5.70;;;;;;;10.71;80.25;101303.94;5115667;28;20208;-68
2022/05/05 02:04:26;;;;;;;6.47;5.83;;;;;;;10.70;80.69;101304.84;5115576;28;20185;-68
2022/05/05 02:06:53;;;;;;;6.20;5.73;;;;;;;10.78;80.15;101311.59;5115239;28;20246;-68
2022/05/05 02:09:19;;;;;;;6.43;5.93;;;;;;;10.69;80.09;101308.38;5115106;28;20205;-68
2022/05/05 02:11:46;;;;;;;6.57;6.30;;;;;;;10.64;80.05;101306.81;5115134;28;20220;-68
2022/05/05 02:14:12;;;;;;;6.17;5.97;;;;;;;10.61;80.05;101306.91;5115106;28;20291;-68
2022/05/05 02:16:38;;;;;;;5.27;5.00;;;;;;;10.61;80.15;101307.78;5115288;28;20213;-68
2022/05/05 02:19:05;;;;;;;6.10;5.60;;;;;;;10.61;79.67;101307.78;5114909;28;20697;-68
2022/05/05 02:21:31;;;;;;;6.97;6.57;;;;;;;10.63;80.58;101315.56;5114977;28;20185;-68
2022/05/05 02:23:57;;;;;;;5.40;5.30;;;;;;;10.63;80.83;101305.94;5114869;28;20213;-68
2022/05/05 02:26:24;;;;;;;5.97;5.57;;;;;;;10.61;80.98;101312.16;5114846;28;20530;-68
2022/05/05 02:28:50;;;;;;;5.17;5.07;;;;;;;10.61;81.20;101313.00;5114760;28;20201;-67
2022/05/05 02:31:17;;;;;;;6.20;5.80;;;;;;;10.61;81.43;101310.38;5115090;28;20188;-67
2022/05/05 02:33:43;;;;;;;5.87;5.53;;;;;;;10.59;81.62;101317.44;5114737;28;20197;-67
2022/05/05 02:38:55;;;;;;;6.37;5.80;;;;;;;10.56;80.54;101314.91;5114439;28;20239;-67
2022/05/05 02:41:21;;;;;;;5.63;5.47;;;;;;;10.55;79.85;101313.19;5114565;28;20189;-67
2022/05/05 02:43:48;;;;;;;5.90;5.70;;;;;;;10.55;79.71;101313.19;5114483;28;20758;-67
2022/05/05 02:46:14;;;;;;;7.17;6.60;;;;;;;10.55;79.56;101313.19;5114744;28;20224;-67
2022/05/05 02:48:41;;;;;;;6.37;6.17;;;;;;;10.57;79.04;101310.53;5114387;28;20605;-67
2022/05/05 02:51:08;;;;;;;7.13;6.50;;;;;;;10.57;79.22;101310.53;5114595;28;20272;-67
2022/05/05 02:56:19;;;;;;;6.33;6.13;;;;;;;10.54;80.71;101315.88;5114348;28;20204;-67
2022/05/05 02:58:46;;;;;;;5.80;5.70;;;;;;;10.52;80.55;101305.44;5114151;28;20552;-67
2022/05/05 03:01:12;;;;;;;6.27;6.07;;;;;;;10.51;80.88;101308.13;5114491;28;20664;-67
2022/05/05 03:03:38;;;;;;;6.13;5.83;;;;;;;10.49;81.37;101308.16;5114183;28;20185;-68
2022/05/05 03:06:05;;;;;;;7.43;6.77;;;;;;;10.46;81.61;101306.50;5114127;28;20189;-68
2022/05/05 03:08:32;;;;;;;8.53;6.43;;;;;;;10.43;81.35;101308.38;5114260;28;20238;-68
2022/05/05 03:10:58;;;;;;;6.80;6.23;;;;;;;10.38;80.63;101308.50;5114707;28;20181;-67
2022/05/05 03:13:24;;;;;;;5.80;5.40;;;;;;;10.32;80.54;101307.84;5114064;28;20234;-67
2022/05/05 03:15:51;;;;;;;8.40;6.07;;;;;;;10.26;80.57;101306.25;5114298;28;20181;-67
2022/05/05 03:18:17;;;;;;;7.83;6.30;;;;;;;10.22;80.11;101307.22;5114102;28;20223;-67
2022/05/05 03:20:44;;;;;;;8.03;6.33;;;;;;;10.15;80.33;101309.19;5114465;28;20653;-67
2022/05/05 03:23:10;;;;;;;5.60;5.60;;;;;;;10.15;80.34;101308.31;5113914;28;20181;-67
2022/05/05 03:25:37;;;;;;;5.83;5.63;;;;;;;10.14;80.72;101319.66;5114150;28;20189;-67
2022/05/05 03:28:04;;;;;;;6.73;6.47;;;;;;;10.12;81.21;101317.09;5113892;28;20247;-67
2022/05/05 03:30:30;;;;;;;5.77;5.53;;;;;;;10.11;81.58;101320.63;5113802;28;20220;-67
2022/05/05 03:32:56;;;;;;;6.00;5.47;;;;;;;10.08;81.95;101320.72;5113713;28;20216;-66
2022/05/05 03:35:23;;;;;;;8.93;6.10;;;;;;;10.06;82.19;101324.28;5113708;28;20600;-66
2022/05/05 03:37:49;;;;;;;6.87;6.57;;;;;;;10.03;82.21;101321.75;5113694;28;20216;-67
2022/05/05 03:40:16;;;;;;;7.83;7.20;;;;;;;10.02;82.10;101325.28;5113671;28;20192;-67
2022/05/05 03:42:42;;;;;;;6.90;6.60;;;;;;;10.02;82.03;101328.75;5113979;28;20562;-67
2022/05/05 03:45:09;;;;;;;7.67;7.17;;;;;;;10.02;81.95;101335.75;5113886;28;20284;-67
2022/05/05 03:47:35;;;;;;;8.67;7.87;;;;;;;10.03;82.04;101332.22;5113936;28;20205;-67
2022/05/05 03:50:02;;;;;;;13.53;8.23;;;;;;;10.03;82.00;101335.69;5114130;28;20216;-67
2022/05/05 03:52:28;;;;;;;11.73;8.07;;;;;;;9.99;82.24;101331.44;5113592;28;20236;-67
2022/05/05 03:54:55;;;;;;;8.77;7.80;;;;;;;9.97;82.09;101335.00;5113520;28;20215;-67
2022/05/05 03:57:21;;;;;;;7.67;7.03;;;;;;;9.96;81.87;101335.91;5113837;28;20661;-67
2022/05/05 03:59:47;;;;;;;6.37;5.90;;;;;;;9.92;81.68;101341.22;5113445;28;20213;-67
2022/05/05 04:02:14;;;;;;;6.87;6.40;;;;;;;9.90;81.60;101342.19;5113747;28;20218;-67
2022/05/05 04:04:40;;;;;;;8.90;6.57;;;;;;;9.86;81.53;101345.78;5115235;28;20188;-67
2022/05/05 04:07:07;;;;;;;7.37;6.97;;;;;;;9.83;81.91;101351.09;5117503;28;20669;-67
2022/05/05 04:09:33;;;;;;;6.60;5.93;;;;;;;9.82;82.06;101350.25;5117514;28;20696;-67
2022/05/05 04:11:59;;;;;;;6.93;5.50;;;;;;;9.79;82.05;101352.94;5117495;28;20224;-67
2022/05/05 04:14:26;;;;;;;9.40;6.30;;;;;;;9.79;82.00;101352.09;5117463;28;20670;-67
2022/05/05 04:16:52;;;;;;;7.03;6.73;;;;;;;9.74;82.00;101353.97;5117219;28;20187;-67
2022/05/05 04:19:19;;;;;;;6.53;6.43;;;;;;;9.71;81.68;101354.91;5117216;28;20215;-67
2022/05/05 04:21:45;;;;;;;7.23;6.83;;;;;;;9.68;81.84;101359.38;5117538;28;20682;-67
2022/05/05 04:24:11;;;;;;;7.00;6.70;;;;;;;9.64;82.00;101354.22;5117255;28;20220;-67
2022/05/05 04:26:38;;;;;;;6.80;6.27;;;;;;;9.59;82.39;101363.94;5117194;28;20196;-67
2022/05/05 04:29:05;;;;;;;12.07;6.43;;;;;;;9.58;82.47;101364.84;5117311;28;20210;-67
2022/05/05 04:31:32;;;;;;;6.47;6.17;;;;;;;9.54;82.23;101357.97;5117084;28;20710;-67
2022/05/05 04:33:58;;;;;;;19.43;7.10;;;;;;;9.51;82.29;101370.28;5117033;28;20204;-67
2022/05/05 04:36:25;;;;;;;7.23;6.67;;;;;;;9.51;81.95;101367.69;5117017;28;20191;-67
2022/05/05 04:38:52;;;;;;;6.13;5.77;;;;;;;9.51;82.54;101371.16;5116804;28;20218;-67
2022/05/05 04:41:19;;;;;;;6.57;6.37;;;;;;;9.49;83.22;101372.91;5116860;28;20226;-67
2022/05/05 04:43:45;;;;;;;6.60;6.30;;;;;;;9.49;83.77;101374.69;5116828;28;20275;-67
2022/05/05 04:46:12;;;;;;;7.10;6.77;;;;;;;9.46;83.77;101373.00;5116804;28;20205;-67
2022/05/05 04:48:38;;;;;;;9.40;6.80;;;;;;;9.45;83.83;101376.53;5116658;28;20773;-67
2022/05/05 04:51:04;;;;;;;7.83;7.03;;;;;;;9.43;83.71;101370.50;5117547;28;20581;-67
2022/05/05 04:53:31;;;;;;;8.30;7.67;;;;;;;9.44;83.72;101372.19;5116974;28;20270;-67
2022/05/05 04:55:57;;;;;;;8.53;7.77;;;;;;;9.48;83.84;101380.81;5116645;28;20289;-67
2022/05/05 04:58:24;;;;;;;9.57;8.17;;;;;;;9.49;84.04;101391.22;5116471;28;20240;-67
2022/05/05 05:00:50;;;;;;;11.17;7.00;;;;;;;9.52;84.12;101385.94;5116554;28;20681;-67
2022/05/05 05:03:35;;;;;;;7.73;7.30;;;;;;;9.60;84.35;101389.19;5115394;28;20238;-68
2022/05/05 05:06:04;;;;;;;14.17;7.27;;;;;;;9.65;84.36;101389.09;5112475;28;20202;-67
2022/05/05 05:08:31;;;;;;;8.97;8.17;;;;;;;9.65;84.11;101389.09;5111794;28;20614;-68
2022/05/05 05:10:58;;;;;;;12.60;8.03;;;;;;;9.66;84.07;101393.41;5095857;28;20190;-67
2022/05/05 05:13:24;;;;;;;12.13;8.40;;;;;;;9.69;84.44;101393.31;5096202;28;20253;-67
2022/05/05 05:15:51;;;;;;;11.63;8.53;;;;;;;9.76;84.38;101394.00;5095270;28;20276;-67
2022/05/05 05:18:17;;;;;;;17.50;9.87;;;;;;;9.77;84.32;101404.41;5095902;28;20262;-67
2022/05/05 05:20:44;;;;;;;11.47;9.23;;;;;;;9.85;84.32;101398.97;5095717;28;20234;-67
2022/05/05 05:23:11;;;;;;;9.10;8.30;;;;;;;9.89;84.52;101405.84;5095969;28;20185;-67
2022/05/05 05:25:37;;;;;;;9.50;8.37;;;;;;;9.97;84.68;101414.34;5095953;28;20271;-67
2022/05/05 05:28:05;;;;;;;9.23;8.63;;;;;;;10.06;84.81;101410.63;5095430;28;20694;-67
2022/05/05 05:30:38;;;;;;;8.13;7.73;;;;;;;10.13;84.75;101409.53;5095574;28;20250;-67
2022/05/05 05:33:05;;;;;;;9.47;8.47;;;;;;;10.17;84.75;101405.94;5095328;28;20238;-67
2022/05/05 05:35:32;;;;;;;9.53;8.83;;;;;;;10.22;84.26;101408.44;5109715;28;20215;-68
2022/05/05 05:37:58;;;;;;;9.10;8.70;;;;;;;10.32;84.22;101404.69;5114647;28;20240;-67
2022/05/05 05:40:24;;;;;;;9.80;8.90;;;;;;;10.45;83.86;101417.38;5114994;28;20228;-68
2022/05/05 05:42:52;;;;;;;8.87;8.37;;;;;;;10.58;83.27;101415.25;5115656;28;20189;-67
2022/05/05 05:45:18;;;;;;;9.80;8.90;;;;;;;10.60;83.05;101421.28;5114960;28;20204;-68
2022/05/05 05:47:45;;;;;;;8.53;8.03;;;;;;;10.66;82.83;101415.00;5114189;28;20254;-67
2022/05/05 05:50:11;;;;;;;14.80;10.30;;;;;;;10.82;82.09;101415.41;5112646;28;20193;-67
2022/05/05 05:52:38;;;;;;;9.97;9.27;;;;;;;10.87;82.34;101418.72;5113344;28;20268;-67
2022/05/05 05:55:05;;;;;;;11.33;10.20;;;;;;;11.10;80.11;101416.22;5113909;28;20275;-68
2022/05/05 05:57:31;;;;;;;13.00;10.87;;;;;;;11.16;80.61;101423.06;5115620;28;20213;-67
2022/05/05 05:59:58;;;;;;;10.93;9.80;;;;;;;11.12;80.96;101427.50;5115887;28;20254;-67
2022/05/05 06:05:22;;;;;;;9.83;9.23;;;;;;;11.25;81.36;101428.84;5114252;28;20252;-68
2022/05/05 06:07:49;;;;;;;17.27;10.40;;;;;;;11.34;81.69;101424.19;5115735;28;20582;-67
2022/05/05 06:10:19;;;;;;;11.93;9.37;;;;;;;11.52;80.80;101436.72;5115767;28;20169;-67
2022/05/05 06:12:46;;;;;;;9.57;8.60;;;;;;;11.58;81.39;101433.88;5115278;28;20194;-67
2022/05/05 06:15:12;;;;;;;13.73;9.37;;;;;;;11.62;80.76;101432.84;5115010;28;20235;-67
2022/05/05 06:17:40;;;;;;;12.80;9.30;;;;;;;11.79;80.09;101441.00;5115063;28;20236;-67
2022/05/05 06:20:07;;;;;;;14.47;9.27;;;;;;;11.93;79.71;101440.56;5115378;28;20205;-67
2022/05/05 06:22:34;;;;;;;11.07;10.07;;;;;;;11.96;78.95;101447.47;5114977;28;20181;-67
2022/05/05 06:25:01;;;;;;;9.63;9.03;;;;;;;12.01;78.47;101449.03;5114996;28;20185;-67
2022/05/05 06:27:28;;;;;;;11.03;9.67;;;;;;;12.11;77.69;101449.53;5113866;28;20747;-67
2022/05/05 06:29:55;;;;;;;10.33;8.07;;;;;;;12.16;77.06;101452.88;5114773;28;20185;-67
2022/05/05 06:32:21;;;;;;;18.33;8.93;;;;;;;12.19;77.65;101454.50;5114517;28;20189;-67
2022/05/05 06:34:48;;;;;;;9.63;9.07;;;;;;;12.27;77.78;101453.31;5108456;28;20232;-68
2022/05/05 06:37:14;;;;;;;11.57;8.37;;;;;;;12.35;77.24;101455.66;5111212;28;20197;-67
2022/05/05 06:39:41;;;;;;;9.47;8.67;;;;;;;12.46;75.85;101455.28;5108306;28;20278;-68
2022/05/05 06:42:08;;;;;;;9.00;8.07;;;;;;;12.50;74.93;101454.22;5113377;28;20235;-70
2022/05/05 06:44:35;;;;;;;9.80;8.83;;;;;;;12.59;74.00;101461.78;5114001;28;20280;-70
2022/05/05 06:47:03;;;;;;;8.37;7.53;;;;;;;12.60;73.63;101464.34;5113536;28;20195;-70
2022/05/05 06:49:30;;;;;;;9.10;8.23;;;;;;;12.62;72.64;101472.16;5113541;28;20184;-70
2022/05/05 06:51:57;;;;;;;9.07;7.90;;;;;;;12.63;72.28;101463.38;5114610;28;20598;-67
2022/05/05 06:54:29;;;;;;;10.23;8.13;;;;;;;12.67;73.04;101470.25;5114618;28;20180;-67
2022/05/05 06:56:56;;;;;;;9.63;8.50;;;;;;;12.66;73.56;101468.53;5114261;28;20193;-67
2022/05/05 06:59:22;;;;;;;8.87;8.17;;;;;;;12.72;74.29;101475.31;5114214;28;20212;-67
2022/05/05 07:01:52;;;;;;;9.47;8.73;;;;;;;12.77;75.03;101470.72;5114430;28;20238;-67
2022/05/05 07:07:21;;;;;;;10.23;9.50;;;;;;;12.85;74.88;101477.41;5114329;28;20229;-67
2022/05/05 07:12:32;;;;;;;10.47;9.57;;;;;;;12.94;74.51;101478.84;5114109;28;20580;-69
2022/05/05 07:14:59;;;;;;;11.73;8.97;;;;;;;12.97;74.57;101483.97;5114030;28;20189;-69
2022/05/05 07:17:26;;;;;;;9.47;8.97;;;;;;;13.01;74.20;101487.34;5114126;28;20214;-69
2022/05/05 07:19:53;;;;;;;9.07;8.17;;;;;;;13.03;72.71;101490.75;5113912;28;20213;-69
2022/05/05 07:22:20;;;;;;;9.37;8.57;;;;;;;13.04;71.75;101495.09;5113844;28;20212;-69
2022/05/05 07:24:47;;;;;;;8.93;8.40;;;;;;;13.16;70.78;101495.47;5113876;28;20191;-69
2022/05/05 07:27:13;;;;;;;9.60;8.73;;;;;;;13.22;71.22;101494.44;5114285;28;20188;-69
2022/05/05 07:29:41;;;;;;;15.43;8.57;;;;;;;13.23;70.39;101501.41;5114117;28;20210;-69
2022/05/05 07:32:08;;;;;;;12.37;8.07;;;;;;;13.16;70.34;101497.25;5113738;28;20658;-69
2022/05/05 07:34:35;;;;;;;10.57;8.13;;;;;;;13.13;70.13;101495.59;5113954;28;20183;-69
2022/05/05 07:37:02;;;;;;;11.93;8.07;;;;;;;13.14;70.12;101499.06;5113597;28;20689;-69
2022/05/05 07:39:29;;;;;;;8.37;7.67;;;;;;;13.13;69.24;101510.50;5113649;28;20639;-69
2022/05/05 07:41:55;;;;;;;13.93;8.53;;;;;;;13.17;69.24;101509.47;5114182;28;20236;-69
2022/05/05 07:44:22;;;;;;;12.87;8.77;;;;;;;13.31;70.00;101506.34;5113867;28;20254;-69
2022/05/05 07:46:48;;;;;;;9.33;8.63;;;;;;;13.29;71.02;101506.41;5113612;28;20185;-69
2022/05/05 07:49:15;;;;;;;11.47;7.90;;;;;;;13.31;71.18;101501.94;5113509;28;20242;-69
2022/05/05 07:51:41;;;;;;;14.67;8.50;;;;;;;13.42;71.33;101504.97;5114053;28;20185;-69
2022/05/05 07:56:55;;;;;;;14.03;10.17;;;;;;;13.52;69.29;101512.50;5113836;28;20533;-69
2022/05/05 07:59:22;;;;;;;11.57;8.83;;;;;;;13.56;68.03;101514.94;5113366;28;20219;-69
2022/05/05 08:01:49;;;;;;;10.37;9.37;;;;;;;13.66;68.64;101518.94;5113964;28;20180;-69
2022/05/05 08:04:15;;;;;;;9.17;8.43;;;;;;;13.69;67.60;101516.16;5113763;28;20234;-69
2022/05/05 08:06:42;;;;;;;11.07;8.13;;;;;;;13.73;68.18;101514.25;5113447;28;20188;-69
2022/05/05 08:09:09;;;;;;;8.63;8.07;;;;;;;13.79;67.11;101519.28;5113390;28;20594;-69
2022/05/05 08:11:36;;;;;;;9.40;8.50;;;;;;;13.90;66.08;101524.94;5113425;28;20188;-69
2022/05/05 08:14:06;;;;;;;9.33;8.63;;;;;;;13.98;65.29;101522.81;5113985;28;20185;-69
2022/05/05 08:16:33;;;;;;;10.97;9.93;;;;;;;14.11;64.28;101522.31;5113375;28;20208;-69
2022/05/05 08:19:00;;;;;;;10.40;9.43;;;;;;;14.17;64.46;101528.16;5113231;28;20258;-69
2022/05/05 08:21:26;;;;;;;11.97;9.00;;;;;;;14.20;64.45;101532.44;5113204;28;20282;-69
2022/05/05 08:29:23;;;;;;;15.00;9.50;;;;;;;14.45;64.87;101532.25;5113174;28;20209;-69
2022/05/05 08:31:49;;;;;;;11.57;9.43;;;;;;;14.59;67.45;101530.72;5113215;28;20185;-69
2022/05/05 08:34:16;;;;;;;21.00;9.83;;;;;;;14.81;65.04;101540.31;5113253;28;20317;-69
2022/05/05 08:36:42;;;;;;;13.03;9.97;;;;;;;14.79;64.92;101537.75;5113478;28;20655;-69
2022/05/05 08:39:09;;;;;;;13.30;10.77;;;;;;;14.64;64.04;101532.28;5112954;28;20259;-70
2022/05/05 08:41:38;;;;;;;10.70;10.00;;;;;;;14.68;63.65;101545.28;5113107;28;20192;-68
2022/05/05 08:44:04;;;;;;;11.57;9.73;;;;;;;14.64;63.74;101535.78;5113098;28;20193;-69
2022/05/05 08:46:33;;;;;;;18.30;11.40;;;;;;;14.78;63.56;101533.38;5113372;28;20212;-70
2022/05/05 08:49:04;;;;;;;17.13;9.90;;;;;;;14.84;64.59;101533.09;5094814;28;20236;-70
2022/05/05 08:51:52;;;;;;;16.83;11.37;;;;;;;14.91;63.73;101531.03;5116348;28;20185;-70
2022/05/05 08:54:21;;;;;;;12.00;10.70;;;;;;;15.08;62.58;101538.19;5116690;28;20182;-70
2022/05/05 08:56:48;;;;;;;12.23;10.03;;;;;;;15.20;64.06;101539.38;5116903;28;20189;-70
2022/05/05 08:59:16;;;;;;;14.07;10.50;;;;;;;15.16;62.78;101537.81;5116744;28;20221;-70
2022/05/05 09:01:43;;;;;;;14.83;10.60;;;;;;;15.25;64.11;101540.00;5116534;28;20264;-70
2022/05/05 09:04:09;;;;;;;9.47;8.83;;;;;;;15.25;63.49;101545.28;5116469;28;20196;-70
2022/05/05 09:06:51;;;;;;;11.73;9.70;;;;;;;15.33;62.94;101537.84;5116775;28;20185;-70
2022/05/05 09:09:28;;;;;;;11.97;10.77;;;;;;;15.41;64.02;101530.41;5116383;28;20250;-70
2022/05/05 09:12:10;;;;;;;10.53;9.70;;;;;;;15.57;64.16;101526.13;5116578;28;20212;-70
2022/05/05 09:14:47;;;;;;;11.57;10.40;;;;;;;15.65;63.25;101531.91;5116294;28;20205;-70
2022/05/05 09:17:17;;;;;;;13.57;11.60;;;;;;;15.76;63.47;101535.78;5116793;28;20198;-70
2022/05/05 09:19:46;;;;;;;13.43;11.57;;;;;;;15.62;62.22;101542.59;5116424;28;20197;-71
2022/05/05 09:22:15;;;;;;;18.13;11.03;;;;;;;15.55;62.99;101540.31;5116115;28;20189;-71
2022/05/05 09:24:44;;;;;;;15.73;11.57;;;;;;;15.44;62.51;101543.47;5116082;28;20220;-71
2022/05/05 09:27:20;;;;;;;22.23;12.50;;;;;;;15.45;62.77;101539.91;5116072;28;20196;-71
2022/05/05 09:30:07;;;;;;;15.10;12.53;;;;;;;15.54;62.41;101534.19;5116330;28;20202;-71
2022/05/05 09:32:36;;;;;;;19.27;12.37;;;;;;;15.49;63.01;101535.31;5116002;28;20589;-70
2022/05/05 09:35:14;;;;;;;14.90;12.47;;;;;;;15.64;62.02;101538.13;5115862;28;20189;-71
2022/05/05 09:37:48;;;;;;;29.90;11.50;;;;;;;15.62;63.21;101542.59;5116095;28;20212;-70
2022/05/05 09:40:20;;;;;;;16.83;11.73;;;;;;;15.63;62.31;101535.53;5115693;28;20240;-70
2022/05/05 09:42:49;;;;;;;16.63;11.60;;;;;;;15.66;62.74;101535.41;5116072;28;20183;-70
2022/05/05 09:45:25;;;;;;;15.50;11.67;;;;;;;15.79;62.80;101540.91;5116227;28;20545;-70
2022/05/05 09:47:54;;;;;;;13.80;11.50;;;;;;;15.88;62.96;101535.19;5115637;28;20233;-70
2022/05/05 09:50:23;;;;;;;17.07;10.83;;;;;;;15.97;63.33;101540.00;5115589;28;20188;-70
2022/05/05 09:58:24;;;;;;;13.63;10.93;;;;;;;15.94;61.39;101550.72;5115753;28;20540;-70
2022/05/05 10:06:18;;;;;;;13.00;11.80;;;;;;;16.11;62.43;101548.06;5115585;28;20197;-70
2022/05/05 10:08:46;;;;;;;16.17;10.87;;;;;;;16.34;61.54;101546.88;5115313;28;20728;-70
2022/05/05 10:11:16;;;;;;;9.83;9.07;;;;;;;16.51;60.79;101546.03;5115159;28;20226;-70
2022/05/05 10:13:45;;;;;;;11.43;8.77;;;;;;;16.48;60.00;101548.81;5115090;28;20226;-70
2022/05/05 10:16:15;;;;;;;11.57;9.70;;;;;;;16.64;59.36;101557.63;5115012;28;20530;-70
2022/05/05 10:18:42;;;;;;;9.53;8.70;;;;;;;16.61;59.81;101552.50;5115563;28;20679;-71
2022/05/05 10:21:16;;;;;;;9.27;8.77;;;;;;;16.58;59.38;101551.84;5114886;28;20237;-70
2022/05/05 10:24:08;;;;;;;10.07;9.27;;;;;;;16.54;59.95;101551.13;5115276;28;20181;-70
2022/05/05 10:26:35;;;;;;;10.23;9.23;;;;;;;16.60;58.94;101555.25;5115487;28;20197;-70
2022/05/05 10:29:03;;;;;;;10.43;9.80;;;;;;;16.55;59.14;101547.56;5114048;28;20241;-71
2022/05/05 10:31:37;;;;;;;12.00;9.70;;;;;;;16.57;59.11;101550.97;5112926;28;20250;-70
2022/05/05 10:34:13;;;;;;;11.17;9.83;;;;;;;16.66;59.33;101541.69;5107841;28;20200;-71
2022/05/05 10:36:39;;;;;;;13.50;10.20;;;;;;;16.66;60.01;101539.91;5108467;28;20596;-71
2022/05/05 10:39:22;;;;;;;10.43;9.63;;;;;;;16.60;60.07;101545.53;5111877;28;20225;-71
2022/05/05 10:41:50;;;;;;;10.80;9.97;;;;;;;16.54;59.13;101550.28;5114411;28;20200;-72
2022/05/05 10:44:16;;;;;;;9.10;8.50;;;;;;;16.56;59.48;101546.59;5109549;28;20640;-72
2022/05/05 10:46:57;;;;;;;8.50;8.03;;;;;;;16.71;61.13;101547.63;5111591;28;20211;-70
2022/05/05 10:52:08;;;;;;;9.07;8.10;;;;;;;16.91;59.46;101538.59;5102169;28;20540;-70
2022/05/05 10:54:38;;;;;;;8.57;7.97;;;;;;;17.10;59.17;101541.09;5110646;28;20246;-70
2022/05/05 10:57:41;;;;;;;8.77;8.30;;;;;;;17.22;58.16;101545.72;5110239;28;20196;-71
2022/05/05 11:00:18;;;;;;;8.93;8.47;;;;;;;17.21;57.63;101536.91;5074659;28;20213;-70
2022/05/05 11:02:57;;;;;;;9.33;8.63;;;;;;;17.33;59.22;101541.53;5112382;28;20725;-69
2022/05/05 11:05:28;;;;;;;8.53;7.90;;;;;;;17.30;57.54;101541.72;5094186;28;20188;-70
2022/05/05 11:07:55;;;;;;;9.67;8.80;;;;;;;17.53;57.46;101539.53;5093284;28;20208;-71
2022/05/05 11:10:48;;;;;;;9.97;8.40;;;;;;;17.43;56.84;101546.28;5111317;28;20629;-71
2022/05/05 11:13:38;;;;;;;7.83;7.43;;;;;;;17.26;57.64;101548.09;5113529;28;20216;-70
2022/05/05 11:22:18;;;;;;;7.60;7.03;;;;;;;17.23;56.55;101548.28;5114519;28;20177;-69
2022/05/05 11:24:46;;;;;;;6.83;6.57;;;;;;;17.29;56.29;101544.44;5093745;28;20216;-70
2022/05/05 11:27:22;;;;;;;6.97;6.67;;;;;;;17.36;55.96;101547.56;5114275;28;20173;-69
2022/05/05 11:29:51;;;;;;;9.90;7.23;;;;;;;17.41;57.17;101550.81;5111723;28;20662;-70
2022/05/05 11:32:20;;;;;;;7.43;7.13;;;;;;;17.48;56.83;101547.75;5112045;28;20254;-71
2022/05/05 11:34:48;;;;;;;6.93;6.63;;;;;;;17.46;56.42;101546.97;5111631;28;20216;-71
2022/05/05 11:37:15;;;;;;;7.73;6.80;;;;;;;17.49;58.12;101553.88;5097343;28;20202;-70
2022/05/05 11:39:41;;;;;;;8.07;7.60;;;;;;;17.61;56.96;101546.09;5111738;28;20189;-69
2022/05/05 11:42:10;;;;;;;11.37;8.60;;;;;;;17.58;55.82;101553.38;5113953;28;20198;-70
2022/05/05 11:44:39;;;;;;;7.17;6.87;;;;;;;17.49;56.09;101548.59;5113777;28;20181;-69
2022/05/05 11:47:12;;;;;;;8.20;7.60;;;;;;;17.50;56.76;101547.66;5114139;28;20238;-70
2022/05/05 11:49:46;;;;;;;7.57;7.17;;;;;;;17.46;56.47;101543.47;5113599;28;20196;-70
2022/05/05 11:52:20;;;;;;;9.30;8.50;;;;;;;17.55;56.27;101540.31;5114215;28;20230;-70
2022/05/05 11:54:49;;;;;;;8.63;7.13;;;;;;;17.41;57.17;101542.88;5114101;28;20574;-70
2022/05/05 11:57:39;;;;;;;7.80;7.23;;;;;;;17.46;58.18;101551.44;5113768;28;20169;-71
2022/05/05 12:02:57;;;;;;;8.43;7.43;;;;;;;17.45;56.89;101541.78;5114003;28;20663;-69
2022/05/05 12:05:24;;;;;;;11.93;6.40;;;;;;;17.32;58.06;101545.09;5113495;28;20189;-70
2022/05/05 12:07:52;;;;;;;6.10;6.00;;;;;;;17.40;57.38;101549.13;5113375;28;20254;-70
2022/05/05 12:10:21;;;;;;;7.37;7.13;;;;;;;17.16;57.62;101538.97;5113468;28;20185;-71
2022/05/05 12:12:59;;;;;;;7.93;7.43;;;;;;;17.24;57.99;101539.41;5113893;28;20226;-70
2022/05/05 12:15:27;;;;;;;7.00;6.77;;;;;;;17.17;57.80;101540.69;5111515;28;20211;-70
2022/05/05 12:17:57;;;;;;;8.43;7.83;;;;;;;17.31;59.59;101538.13;5113320;28;20205;-70
2022/05/05 12:20:26;;;;;;;7.83;7.53;;;;;;;17.41;58.14;101543.72;5112145;28;20287;-70
2022/05/05 12:22:57;;;;;;;8.17;7.77;;;;;;;17.53;56.67;101547.50;5113209;28;20189;-70